Terminal Aerodrome Forecast
Issued by NWS

Home | Current Version | Previous Version | Text Only | Print | Product List | Glossary On
Versions: 1 2 3 4 5 6 7 8 9 10 11 12 13 14 15 16 17 18 19 20 21 22 23 24 25 26
000
FTAK31 PAFA 201249 AAA
TAFAMC
TAF AMD
PAMC 201249Z 2013/2112 02004KT P6SM VCSH OVC035
     FM202200 36005KT P6SM -SHSN OVC040
     FM210700 VRB03KT P6SM -SHSN SCT007 OVC025=

USA.gov is the U.S. government's official web portal to all federal, state and local government web resources and services.